createdAt,value
2023-02-16T00:00:08.000Z,271.21
2023-02-16T00:02:12.000Z,271.15
2023-02-16T00:03:36.000Z,271.15
2023-02-16T00:05:40.000Z,271.09
2023-02-16T00:07:04.000Z,271.09
2023-02-16T00:09:08.000Z,271.09
2023-02-16T00:10:32.000Z,271.15
2023-02-16T00:12:36.000Z,271.09
2023-02-16T00:14:00.000Z,271.09
2023-02-16T00:16:04.000Z,271.09
2023-02-16T00:17:28.000Z,271.09
2023-02-16T00:19:32.000Z,271.09
2023-02-16T00:20:56.000Z,271.09
2023-02-16T00:23:00.000Z,271.09
2023-02-16T00:24:24.000Z,271.02
2023-02-16T00:26:28.000Z,271.09
2023-02-16T00:27:52.000Z,271.09
2023-02-16T00:29:55.000Z,271.02
2023-02-16T00:31:20.000Z,270.9
2023-02-16T00:33:24.000Z,270.9
2023-02-16T00:36:13.000Z,270.9
2023-02-16T00:37:37.000Z,270.9
2023-02-16T00:39:41.000Z,270.84
2023-02-16T00:41:05.000Z,270.84
2023-02-16T00:43:09.000Z,270.84
2023-02-16T00:44:33.000Z,270.77
2023-02-16T00:46:36.000Z,270.77
2023-02-16T00:48:01.000Z,270.71
2023-02-16T00:50:04.000Z,270.71
2023-02-16T00:51:29.000Z,270.77
2023-02-16T00:53:32.000Z,270.84
2023-02-16T00:54:57.000Z,270.84
2023-02-16T00:57:00.000Z,270.77
2023-02-16T00:58:25.000Z,270.84
2023-02-16T01:00:28.000Z,270.77
2023-02-16T01:01:53.000Z,270.71
2023-02-16T01:03:56.000Z,270.71
2023-02-16T01:05:21.000Z,270.84
2023-02-16T01:07:24.000Z,270.9
2023-02-16T01:08:49.000Z,270.9
2023-02-16T01:10:52.000Z,270.96
2023-02-16T01:13:41.000Z,270.9
2023-02-16T01:15:06.000Z,270.9
2023-02-16T01:17:09.000Z,270.96
2023-02-16T01:18:34.000Z,270.9
2023-02-16T01:20:37.000Z,270.9
2023-02-16T01:22:02.000Z,270.9
2023-02-16T01:24:05.000Z,270.84
2023-02-16T01:25:29.000Z,270.77
2023-02-16T01:27:33.000Z,270.71
2023-02-16T01:28:57.000Z,270.71
2023-02-16T01:31:00.000Z,270.71
2023-02-16T01:32:26.000Z,270.77
2023-02-16T01:34:29.000Z,270.84
2023-02-16T01:35:53.000Z,270.84
2023-02-16T01:37:57.000Z,270.71
2023-02-16T01:39:21.000Z,270.77
2023-02-16T01:41:25.000Z,270.71
2023-02-16T01:42:49.000Z,270.77
2023-02-16T01:44:52.000Z,270.84
2023-02-16T01:46:17.000Z,270.9
2023-02-16T01:48:20.000Z,270.77
2023-02-16T01:51:10.000Z,270.84
2023-02-16T01:52:34.000Z,270.84
2023-02-16T01:54:37.000Z,270.84
2023-02-16T01:56:02.000Z,270.84
2023-02-16T01:58:05.000Z,270.84
2023-02-16T01:59:30.000Z,270.77
2023-02-16T02:01:33.000Z,270.84
2023-02-16T02:02:58.000Z,270.84
2023-02-16T02:05:01.000Z,270.84
2023-02-16T02:06:26.000Z,270.9
2023-02-16T02:08:29.000Z,270.9
2023-02-16T02:09:53.000Z,270.9
2023-02-16T02:11:57.000Z,270.9
2023-02-16T02:13:21.000Z,270.9
2023-02-16T02:15:25.000Z,270.84
2023-02-16T02:16:49.000Z,270.84
2023-02-16T02:18:53.000Z,270.9
2023-02-16T02:20:17.000Z,270.84
2023-02-16T02:22:21.000Z,270.9
2023-02-16T02:23:45.000Z,270.9
2023-02-16T02:25:49.000Z,270.9
2023-02-16T02:28:38.000Z,270.9
2023-02-16T02:30:02.000Z,270.9
2023-02-16T02:32:06.000Z,270.9
2023-02-16T02:33:30.000Z,270.9
2023-02-16T02:35:34.000Z,270.84
2023-02-16T02:36:58.000Z,270.9
2023-02-16T02:39:02.000Z,270.9
2023-02-16T02:40:26.000Z,270.9
2023-02-16T02:42:29.000Z,270.9
2023-02-16T02:43:54.000Z,270.9
2023-02-16T02:45:57.000Z,270.9
2023-02-16T02:47:22.000Z,270.9
2023-02-16T02:49:25.000Z,270.9
2023-02-16T02:50:50.000Z,270.96
2023-02-16T02:52:53.000Z,270.9
2023-02-16T02:54:18.000Z,270.96
2023-02-16T02:56:21.000Z,271.02
2023-02-16T02:57:46.000Z,271.09
2023-02-16T02:59:49.000Z,271.09
2023-02-16T03:01:14.000Z,271.15
2023-02-16T03:03:17.000Z,271.15
2023-02-16T03:06:06.000Z,271.15
2023-02-16T03:07:31.000Z,271.21
2023-02-16T03:09:34.000Z,271.15
2023-02-16T03:10:59.000Z,271.15
2023-02-16T03:13:02.000Z,271.21
2023-02-16T03:14:27.000Z,271.21
2023-02-16T03:16:30.000Z,271.21
2023-02-16T03:17:55.000Z,271.21
2023-02-16T03:19:58.000Z,271.21
2023-02-16T03:21:22.000Z,271.21
2023-02-16T03:23:26.000Z,271.21
2023-02-16T03:24:50.000Z,271.15
2023-02-16T03:26:54.000Z,271.15
2023-02-16T03:28:18.000Z,271.15
2023-02-16T03:30:22.000Z,271.15
2023-02-16T03:31:46.000Z,271.15
2023-02-16T03:33:50.000Z,271.09
2023-02-16T03:35:14.000Z,271.09
2023-02-16T03:37:18.000Z,271.09
2023-02-16T03:38:42.000Z,271.09
2023-02-16T03:40:46.000Z,271.09
2023-02-16T03:43:35.000Z,271.15
2023-02-16T03:44:59.000Z,271.27
2023-02-16T03:47:03.000Z,271.21
2023-02-16T03:48:27.000Z,271.21
2023-02-16T03:50:31.000Z,271.15
2023-02-16T03:51:55.000Z,271.15
2023-02-16T03:53:58.000Z,271.09
2023-02-16T03:55:23.000Z,271.15
2023-02-16T03:57:26.000Z,271.15
2023-02-16T03:58:51.000Z,271.21
2023-02-16T04:00:54.000Z,271.15
2023-02-16T04:02:19.000Z,271.09
2023-02-16T04:04:22.000Z,271.15
2023-02-16T04:05:47.000Z,271.21
2023-02-16T04:07:50.000Z,271.21
2023-02-16T04:09:15.000Z,271.21
2023-02-16T04:11:18.000Z,271.21
2023-02-16T04:12:43.000Z,271.21
2023-02-16T04:14:46.000Z,271.15
2023-02-16T04:16:11.000Z,271.21
2023-02-16T04:18:14.000Z,271.21
2023-02-16T04:22:36.000Z,271.27
2023-02-16T04:24:33.000Z,271.27
2023-02-16T04:25:57.000Z,271.27
2023-02-16T04:28:00.000Z,271.27
2023-02-16T04:29:25.000Z,271.27
2023-02-16T04:31:28.000Z,271.34
2023-02-16T04:32:53.000Z,271.34
2023-02-16T04:34:56.000Z,271.34
2023-02-16T04:36:21.000Z,271.34
2023-02-16T04:38:24.000Z,271.27
2023-02-16T04:39:49.000Z,271.27
2023-02-16T04:41:52.000Z,271.27
2023-02-16T04:43:16.000Z,271.21
2023-02-16T04:45:20.000Z,271.15
2023-02-16T04:46:44.000Z,271.15
2023-02-16T04:48:48.000Z,271.21
2023-02-16T04:50:12.000Z,271.21
2023-02-16T04:52:16.000Z,271.15
2023-02-16T04:53:40.000Z,271.21
2023-02-16T04:55:44.000Z,271.21
2023-02-16T04:57:08.000Z,271.27
2023-02-16T04:59:12.000Z,271.21
2023-02-16T05:02:01.000Z,271.15
2023-02-16T05:03:26.000Z,271.15
2023-02-16T05:05:29.000Z,271.15
2023-02-16T05:06:53.000Z,271.15
2023-02-16T05:08:57.000Z,271.15
2023-02-16T05:10:21.000Z,271.21
2023-02-16T05:12:25.000Z,271.21
2023-02-16T05:13:49.000Z,271.27
2023-02-16T05:15:53.000Z,271.21
2023-02-16T05:17:17.000Z,271.21
2023-02-16T05:19:20.000Z,271.21
2023-02-16T05:20:45.000Z,271.27
2023-02-16T05:22:48.000Z,271.4
2023-02-16T05:24:13.000Z,271.34
2023-02-16T05:26:16.000Z,271.4
2023-02-16T05:27:41.000Z,271.27
2023-02-16T05:29:44.000Z,271.21
2023-02-16T05:31:09.000Z,271.15
2023-02-16T05:33:12.000Z,271.21
2023-02-16T05:34:37.000Z,271.15
2023-02-16T05:36:40.000Z,271.09
2023-02-16T05:39:29.000Z,271.15
2023-02-16T05:40:54.000Z,271.09
2023-02-16T05:42:57.000Z,271.15
2023-02-16T05:44:22.000Z,271.02
2023-02-16T05:46:25.000Z,271.09
2023-02-16T05:47:50.000Z,271.02
2023-02-16T05:49:53.000Z,270.96
2023-02-16T05:51:18.000Z,271.02
2023-02-16T05:53:21.000Z,271.02
2023-02-16T05:54:45.000Z,271.15
2023-02-16T05:56:49.000Z,271.15
2023-02-16T05:58:13.000Z,271.09
2023-02-16T06:00:17.000Z,271.09
2023-02-16T06:01:41.000Z,271.09
2023-02-16T06:03:45.000Z,271.02
2023-02-16T06:05:09.000Z,270.96
2023-02-16T06:07:13.000Z,271.02
2023-02-16T06:08:37.000Z,271.09
2023-02-16T06:10:41.000Z,270.84
2023-02-16T06:12:05.000Z,270.9
2023-02-16T06:14:09.000Z,270.84
2023-02-16T06:16:58.000Z,270.9
2023-02-16T06:18:23.000Z,270.84
2023-02-16T06:20:26.000Z,270.84
2023-02-16T06:21:51.000Z,270.9
2023-02-16T06:23:54.000Z,271.02
2023-02-16T06:25:18.000Z,271.15
2023-02-16T06:27:22.000Z,271.27
2023-02-16T06:28:46.000Z,271.27
2023-02-16T06:30:50.000Z,271.27
2023-02-16T06:32:14.000Z,271.15
2023-02-16T06:34:18.000Z,271.15
2023-02-16T06:35:42.000Z,271.09
2023-02-16T06:37:46.000Z,271.09
2023-02-16T06:39:10.000Z,271.09
2023-02-16T06:41:14.000Z,271.02
2023-02-16T06:42:38.000Z,271.02
2023-02-16T06:44:41.000Z,270.9
2023-02-16T06:46:06.000Z,270.84
2023-02-16T06:48:09.000Z,270.96
2023-02-16T06:49:34.000Z,270.9
2023-02-16T06:51:38.000Z,270.9
2023-02-16T06:54:27.000Z,270.84
2023-02-16T06:55:51.000Z,270.9
2023-02-16T06:57:55.000Z,270.84
2023-02-16T06:59:19.000Z,270.77
2023-02-16T07:01:23.000Z,270.9
2023-02-16T07:02:47.000Z,270.9
2023-02-16T07:04:51.000Z,270.9
2023-02-16T07:06:15.000Z,270.96
2023-02-16T07:08:18.000Z,270.84
2023-02-16T07:09:43.000Z,270.9
2023-02-16T07:11:46.000Z,270.77
2023-02-16T07:13:11.000Z,270.71
2023-02-16T07:15:14.000Z,270.77
2023-02-16T07:16:39.000Z,270.77
2023-02-16T07:18:42.000Z,270.71
2023-02-16T07:20:07.000Z,270.71
2023-02-16T07:22:10.000Z,270.84
2023-02-16T07:23:34.000Z,270.84
2023-02-16T07:25:43.000Z,270.84
2023-02-16T07:27:08.000Z,270.84
2023-02-16T07:29:11.000Z,270.9
2023-02-16T07:32:00.000Z,270.77
2023-02-16T07:33:30.000Z,270.84
2023-02-16T07:35:33.000Z,270.71
2023-02-16T07:36:58.000Z,270.71
2023-02-16T07:39:01.000Z,270.77
2023-02-16T07:40:26.000Z,270.65
2023-02-16T07:42:29.000Z,270.65
2023-02-16T07:43:54.000Z,270.71
2023-02-16T07:45:57.000Z,270.77
2023-02-16T07:47:21.000Z,270.84
2023-02-16T07:49:30.000Z,271.09
2023-02-16T07:50:55.000Z,271.21
2023-02-16T07:52:58.000Z,271.15
2023-02-16T07:54:23.000Z,271.09
2023-02-16T07:56:26.000Z,271.09
2023-02-16T07:57:50.000Z,270.96
2023-02-16T07:59:54.000Z,271.02
2023-02-16T08:01:18.000Z,271.15
2023-02-16T08:03:22.000Z,271.09
2023-02-16T08:04:46.000Z,271.21
2023-02-16T08:06:50.000Z,271.15
2023-02-16T08:09:39.000Z,271.15
2023-02-16T08:11:03.000Z,271.21
2023-02-16T08:13:07.000Z,271.27
2023-02-16T08:14:32.000Z,271.34
2023-02-16T08:16:35.000Z,271.21
2023-02-16T08:18:00.000Z,271.21
2023-02-16T08:20:03.000Z,271.27
2023-02-16T08:21:28.000Z,271.34
2023-02-16T08:23:31.000Z,271.34
2023-02-16T08:24:56.000Z,271.27
2023-02-16T08:26:59.000Z,271.27
2023-02-16T08:28:24.000Z,271.27
2023-02-16T08:30:27.000Z,271.34
2023-02-16T08:31:52.000Z,271.34
2023-02-16T08:33:55.000Z,271.4
2023-02-16T08:35:19.000Z,271.34
2023-02-16T08:37:28.000Z,271.34
2023-02-16T08:38:52.000Z,271.27
2023-02-16T08:40:56.000Z,271.34
2023-02-16T08:42:20.000Z,271.4
2023-02-16T08:44:24.000Z,271.4
2023-02-16T08:47:13.000Z,271.4
2023-02-16T08:48:42.000Z,271.4
2023-02-16T08:50:46.000Z,271.4
2023-02-16T08:52:10.000Z,271.34
2023-02-16T08:54:14.000Z,271.46
2023-02-16T08:55:38.000Z,271.52
2023-02-16T08:57:42.000Z,271.65
2023-02-16T08:59:06.000Z,271.77
2023-02-16T09:01:10.000Z,271.84
2023-02-16T09:02:34.000Z,271.9
2023-02-16T09:04:38.000Z,271.96
2023-02-16T09:06:02.000Z,272.09
2023-02-16T09:08:06.000Z,272.09
2023-02-16T09:09:30.000Z,272.09
2023-02-16T09:11:34.000Z,272.15
2023-02-16T09:12:58.000Z,272.15
2023-02-16T09:15:02.000Z,272.21
2023-02-16T09:16:26.000Z,272.21
2023-02-16T09:18:30.000Z,272.27
2023-02-16T09:19:54.000Z,272.34
2023-02-16T09:21:58.000Z,272.34
2023-02-16T09:24:47.000Z,272.4
2023-02-16T09:26:16.000Z,272.46
2023-02-16T09:28:20.000Z,272.46
2023-02-16T09:29:49.000Z,272.52
2023-02-16T09:31:53.000Z,272.52
2023-02-16T09:33:18.000Z,272.52
2023-02-16T09:35:26.000Z,272.59
2023-02-16T09:36:51.000Z,272.65
2023-02-16T09:38:54.000Z,272.71
2023-02-16T09:40:19.000Z,272.77
2023-02-16T09:42:22.000Z,272.77
2023-02-16T09:43:47.000Z,272.9
2023-02-16T09:45:50.000Z,273.09
2023-02-16T09:47:15.000Z,273.21
2023-02-16T09:49:18.000Z,273.15
2023-02-16T09:50:43.000Z,273.15
2023-02-16T09:52:55.000Z,273.27
2023-02-16T09:54:20.000Z,273.27
2023-02-16T09:56:23.000Z,273.46
2023-02-16T09:57:48.000Z,273.71
2023-02-16T09:59:52.000Z,273.52
2023-02-16T10:02:41.000Z,273.9
2023-02-16T10:04:07.000Z,273.96
2023-02-16T10:06:14.000Z,274.09
2023-02-16T10:07:40.000Z,273.96
2023-02-16T10:09:46.000Z,274.02
2023-02-16T10:11:13.000Z,274.15
2023-02-16T10:13:19.000Z,274.15
2023-02-16T10:14:45.000Z,274.21
2023-02-16T10:16:51.000Z,274.21
2023-02-16T10:18:18.000Z,274.21
2023-02-16T10:20:24.000Z,274.15
2023-02-16T10:21:51.000Z,274.34
2023-02-16T10:23:57.000Z,274.34
2023-02-16T10:25:23.000Z,274.65
2023-02-16T10:27:29.000Z,274.59
2023-02-16T10:28:56.000Z,274.65
2023-02-16T10:31:02.000Z,274.71
2023-02-16T10:32:29.000Z,274.77
2023-02-16T10:34:37.000Z,274.77
2023-02-16T10:36:04.000Z,274.71
2023-02-16T10:38:10.000Z,274.71
2023-02-16T10:41:01.000Z,274.9
2023-02-16T10:42:28.000Z,275.15
2023-02-16T10:44:34.000Z,275.02
2023-02-16T10:46:01.000Z,275.27
2023-02-16T10:48:07.000Z,275.71
2023-02-16T10:49:33.000Z,275.46
2023-02-16T10:51:39.000Z,275.4
2023-02-16T10:53:06.000Z,275.46
2023-02-16T10:55:12.000Z,275.46
2023-02-16T10:56:38.000Z,275.46
2023-02-16T10:58:45.000Z,275.52
2023-02-16T11:00:11.000Z,275.52
2023-02-16T11:02:22.000Z,275.59
2023-02-16T11:03:49.000Z,275.52
2023-02-16T11:06:00.000Z,275.52
2023-02-16T11:07:27.000Z,275.65
2023-02-16T11:09:33.000Z,275.84
2023-02-16T11:11:00.000Z,275.77
2023-02-16T11:13:06.000Z,275.77
2023-02-16T11:14:32.000Z,275.9
2023-02-16T11:16:38.000Z,275.9
2023-02-16T11:19:30.000Z,276.02
2023-02-16T11:20:56.000Z,276.15
2023-02-16T11:23:02.000Z,276.02
2023-02-16T11:24:29.000Z,276.09
2023-02-16T11:26:35.000Z,276.02
2023-02-16T11:28:02.000Z,276.15
2023-02-16T11:30:08.000Z,276.4
2023-02-16T11:31:34.000Z,276.46
2023-02-16T11:33:41.000Z,276.52
2023-02-16T11:35:07.000Z,276.65
2023-02-16T11:37:13.000Z,276.84
2023-02-16T11:38:40.000Z,277.15
2023-02-16T11:40:46.000Z,277.15
2023-02-16T11:42:12.000Z,277.27
2023-02-16T11:44:18.000Z,277.52
2023-02-16T11:45:45.000Z,277.34
2023-02-16T11:47:51.000Z,277.27
2023-02-16T11:49:18.000Z,277.77
2023-02-16T11:51:24.000Z,277.71
2023-02-16T11:52:50.000Z,277.65
2023-02-16T11:54:56.000Z,277.52
2023-02-16T11:57:47.000Z,277.59
2023-02-16T11:59:14.000Z,277.9
2023-02-16T12:01:20.000Z,277.9
2023-02-16T12:02:46.000Z,277.77
2023-02-16T12:04:52.000Z,277.96
2023-02-16T12:06:19.000Z,277.96
2023-02-16T12:08:25.000Z,278.09
2023-02-16T12:09:52.000Z,277.96
2023-02-16T12:11:58.000Z,277.96
2023-02-16T12:13:24.000Z,277.9
2023-02-16T12:15:30.000Z,278.02
2023-02-16T12:16:57.000Z,278.21
2023-02-16T12:19:03.000Z,278.21
2023-02-16T12:20:29.000Z,278.15
2023-02-16T12:22:36.000Z,278.21
2023-02-16T12:24:02.000Z,278.09
2023-02-16T12:26:08.000Z,278.15
2023-02-16T12:27:35.000Z,278.02
2023-02-16T12:29:41.000Z,278.09
2023-02-16T12:31:07.000Z,278.02
2023-02-16T12:33:14.000Z,278.15
2023-02-16T12:36:05.000Z,278.15
2023-02-16T12:37:31.000Z,278.15
2023-02-16T12:39:38.000Z,278.09
2023-02-16T12:41:04.000Z,278.09
2023-02-16T12:43:10.000Z,278.15
2023-02-16T12:44:37.000Z,278.09
2023-02-16T12:46:43.000Z,278.4
2023-02-16T12:48:09.000Z,278.46
2023-02-16T12:50:15.000Z,278.77
2023-02-16T12:51:42.000Z,278.96
2023-02-16T12:53:48.000Z,278.9
2023-02-16T12:55:14.000Z,278.9
2023-02-16T12:57:21.000Z,278.77
2023-02-16T12:58:47.000Z,278.71
2023-02-16T13:00:53.000Z,278.9
2023-02-16T13:02:20.000Z,278.9
2023-02-16T13:04:26.000Z,279.15
2023-02-16T13:05:52.000Z,279.52
2023-02-16T13:07:58.000Z,279.65
2023-02-16T13:09:25.000Z,279.71
2023-02-16T13:11:31.000Z,280.02
2023-02-16T13:14:22.000Z,280.21
2023-02-16T13:15:49.000Z,280.34
2023-02-16T13:17:55.000Z,280.27
2023-02-16T13:19:22.000Z,280.27
2023-02-16T13:21:28.000Z,280.27
2023-02-16T13:22:59.000Z,280.34
2023-02-16T13:25:05.000Z,280.21
2023-02-16T13:26:32.000Z,280.21
2023-02-16T13:28:38.000Z,280.15
2023-02-16T13:30:04.000Z,280.21
2023-02-16T13:33:38.000Z,280.09
2023-02-16T13:35:44.000Z,280.15
2023-02-16T13:37:11.000Z,280.09
2023-02-16T13:39:17.000Z,280.15
2023-02-16T13:40:43.000Z,280.09
2023-02-16T13:42:50.000Z,280.02
2023-02-16T13:44:16.000Z,280.09
2023-02-16T13:46:22.000Z,280.09
2023-02-16T13:47:49.000Z,280.15
2023-02-16T13:49:55.000Z,280.15
2023-02-16T13:52:46.000Z,280.21
2023-02-16T13:54:13.000Z,280.15
2023-02-16T13:56:19.000Z,280.21
2023-02-16T13:57:45.000Z,280.21
2023-02-16T13:59:55.000Z,280.21
2023-02-16T14:01:21.000Z,280.21
2023-02-16T14:03:27.000Z,280.21
2023-02-16T14:04:54.000Z,280.21
2023-02-16T14:07:00.000Z,280.21
2023-02-16T14:08:26.000Z,280.21
2023-02-16T14:10:33.000Z,280.21
2023-02-16T14:11:59.000Z,280.21
2023-02-16T14:14:05.000Z,280.21
2023-02-16T14:15:32.000Z,280.21
2023-02-16T14:17:38.000Z,280.27
2023-02-16T14:19:04.000Z,280.27
2023-02-16T14:21:11.000Z,280.34
2023-02-16T14:22:37.000Z,280.27
2023-02-16T14:24:43.000Z,280.21
2023-02-16T14:26:10.000Z,280.21
2023-02-16T14:28:16.000Z,280.21
2023-02-16T14:31:07.000Z,280.21
2023-02-16T14:32:34.000Z,280.15
2023-02-16T14:34:40.000Z,280.21
2023-02-16T14:36:06.000Z,280.21
2023-02-16T14:38:12.000Z,280.21
2023-02-16T14:39:39.000Z,280.15
2023-02-16T14:42:10.000Z,280.09
2023-02-16T14:43:37.000Z,280.15
2023-02-16T14:45:43.000Z,280.09
2023-02-16T14:47:09.000Z,280.15
2023-02-16T14:49:16.000Z,280.15
2023-02-16T14:50:42.000Z,280.15
2023-02-16T14:52:48.000Z,280.09
2023-02-16T14:54:15.000Z,280.09
2023-02-16T14:56:21.000Z,280.15
2023-02-16T14:57:50.000Z,280.15
2023-02-16T14:59:56.000Z,280.15
2023-02-16T15:01:22.000Z,280.09
2023-02-16T15:03:28.000Z,280.21
2023-02-16T15:04:55.000Z,280.21
2023-02-16T15:07:01.000Z,280.21
2023-02-16T15:09:52.000Z,280.15
2023-02-16T15:11:19.000Z,280.15
2023-02-16T15:13:25.000Z,280.15
2023-02-16T15:14:51.000Z,280.09
2023-02-16T15:16:58.000Z,280.02
2023-02-16T15:18:24.000Z,279.96
2023-02-16T15:20:30.000Z,279.9
2023-02-16T15:21:57.000Z,279.9
2023-02-16T15:24:03.000Z,279.9
2023-02-16T15:25:29.000Z,279.9
2023-02-16T15:27:35.000Z,279.9
2023-02-16T15:29:02.000Z,279.9
2023-02-16T15:31:08.000Z,279.84
2023-02-16T15:32:35.000Z,279.77
2023-02-16T15:34:41.000Z,279.77
2023-02-16T15:36:07.000Z,279.71
2023-02-16T15:38:13.000Z,279.71
2023-02-16T15:39:40.000Z,279.71
2023-02-16T15:42:10.000Z,279.59
2023-02-16T15:43:36.000Z,279.59
2023-02-16T15:45:42.000Z,279.52
2023-02-16T15:48:33.000Z,279.52
2023-02-16T15:50:00.000Z,279.46
2023-02-16T15:52:06.000Z,279.46
2023-02-16T15:53:33.000Z,279.46
2023-02-16T15:55:39.000Z,279.4
2023-02-16T15:57:05.000Z,279.4
2023-02-16T15:59:11.000Z,279.34
2023-02-16T16:00:38.000Z,279.34
2023-02-16T16:02:44.000Z,279.27
2023-02-16T16:04:10.000Z,279.27
2023-02-16T16:06:16.000Z,279.21
2023-02-16T16:07:43.000Z,279.27
2023-02-16T16:09:49.000Z,279.21
2023-02-16T16:11:16.000Z,279.21
2023-02-16T16:13:22.000Z,279.21
2023-02-16T16:14:48.000Z,279.15
2023-02-16T16:16:54.000Z,279.15
2023-02-16T16:18:21.000Z,279.15
2023-02-16T16:20:27.000Z,279.15
2023-02-16T16:21:53.000Z,279.15
2023-02-16T16:23:59.000Z,279.15
2023-02-16T16:26:51.000Z,279.15
2023-02-16T16:28:17.000Z,279.21
2023-02-16T16:30:26.000Z,279.21
2023-02-16T16:31:52.000Z,279.21
2023-02-16T16:33:59.000Z,279.21
2023-02-16T16:35:25.000Z,279.21
2023-02-16T16:37:31.000Z,279.27
2023-02-16T16:38:58.000Z,279.27
2023-02-16T16:41:04.000Z,279.21
2023-02-16T16:42:31.000Z,279.21
2023-02-16T16:44:37.000Z,279.21
2023-02-16T16:46:04.000Z,279.27
2023-02-16T16:48:10.000Z,279.34
2023-02-16T16:49:36.000Z,279.4
2023-02-16T16:51:42.000Z,279.34
2023-02-16T16:53:09.000Z,279.4
2023-02-16T16:55:15.000Z,279.34
2023-02-16T16:56:42.000Z,279.4
2023-02-16T16:58:48.000Z,279.46
2023-02-16T17:00:14.000Z,279.4
2023-02-16T17:02:20.000Z,279.4
2023-02-16T17:05:11.000Z,279.4
2023-02-16T17:06:38.000Z,279.4
2023-02-16T17:08:44.000Z,279.4
2023-02-16T17:10:10.000Z,279.46
2023-02-16T17:12:17.000Z,279.46
2023-02-16T17:13:43.000Z,279.46
2023-02-16T17:15:49.000Z,279.4
2023-02-16T17:17:16.000Z,279.34
2023-02-16T17:19:22.000Z,279.27
2023-02-16T17:20:48.000Z,279.27
2023-02-16T17:22:54.000Z,279.21
2023-02-16T17:24:21.000Z,279.27
2023-02-16T17:26:27.000Z,279.27
2023-02-16T17:27:54.000Z,279.21
2023-02-16T17:30:00.000Z,279.21
2023-02-16T17:31:26.000Z,279.15
2023-02-16T17:33:33.000Z,279.21
2023-02-16T17:34:59.000Z,279.21
2023-02-16T17:37:05.000Z,279.15
2023-02-16T17:38:32.000Z,279.15
2023-02-16T17:40:38.000Z,279.15
2023-02-16T17:43:29.000Z,279.15
2023-02-16T17:44:56.000Z,279.15
2023-02-16T17:47:02.000Z,279.21
2023-02-16T17:48:28.000Z,279.21
2023-02-16T17:50:34.000Z,279.21
2023-02-16T17:52:01.000Z,279.21
2023-02-16T17:54:07.000Z,279.21
2023-02-16T17:55:33.000Z,279.21
2023-02-16T17:57:40.000Z,279.15
2023-02-16T17:59:06.000Z,279.15
2023-02-16T18:01:12.000Z,279.02
2023-02-16T18:02:39.000Z,279.02
2023-02-16T18:04:45.000Z,278.96
2023-02-16T18:06:11.000Z,279.09
2023-02-16T18:08:18.000Z,279.09
2023-02-16T18:09:44.000Z,279.02
2023-02-16T18:11:50.000Z,278.9
2023-02-16T18:13:17.000Z,278.9
2023-02-16T18:15:23.000Z,278.84
2023-02-16T18:16:49.000Z,278.9
2023-02-16T18:18:56.000Z,278.77
2023-02-16T18:21:47.000Z,278.84
2023-02-16T18:23:13.000Z,278.84
2023-02-16T18:25:19.000Z,278.77
2023-02-16T18:26:46.000Z,278.84
2023-02-16T18:28:52.000Z,278.9
2023-02-16T18:30:18.000Z,278.96
2023-02-16T18:32:25.000Z,279.02
2023-02-16T18:33:51.000Z,279.02
2023-02-16T18:35:57.000Z,279.02
2023-02-16T18:37:24.000Z,278.9
2023-02-16T18:39:30.000Z,278.9
2023-02-16T18:40:56.000Z,278.84
2023-02-16T18:43:03.000Z,278.84
2023-02-16T18:44:29.000Z,278.77
2023-02-16T18:46:35.000Z,278.77
2023-02-16T18:48:02.000Z,278.71
2023-02-16T18:50:08.000Z,278.71
2023-02-16T18:51:34.000Z,278.71
2023-02-16T18:53:40.000Z,278.77
2023-02-16T18:55:07.000Z,278.71
2023-02-16T18:57:13.000Z,278.84
2023-02-16T19:00:04.000Z,278.77
2023-02-16T19:01:31.000Z,278.71
2023-02-16T19:03:37.000Z,278.65
2023-02-16T19:05:03.000Z,278.65
2023-02-16T19:07:10.000Z,278.59
2023-02-16T19:08:36.000Z,278.52
2023-02-16T19:10:42.000Z,278.46
2023-02-16T19:12:09.000Z,278.46
2023-02-16T19:14:15.000Z,278.46
2023-02-16T19:15:41.000Z,278.46
2023-02-16T19:17:48.000Z,278.4
2023-02-16T19:19:14.000Z,278.4
2023-02-16T19:21:20.000Z,278.4
2023-02-16T19:22:47.000Z,278.4
2023-02-16T19:24:53.000Z,278.46
2023-02-16T19:26:20.000Z,278.59
2023-02-16T19:28:26.000Z,278.65
2023-02-16T19:29:52.000Z,278.59
2023-02-16T19:31:58.000Z,278.52
2023-02-16T19:33:25.000Z,278.52
2023-02-16T19:35:31.000Z,278.46
2023-02-16T19:38:23.000Z,278.4
2023-02-16T19:39:49.000Z,278.4
2023-02-16T19:41:56.000Z,278.4
2023-02-16T19:43:22.000Z,278.46
2023-02-16T19:45:28.000Z,278.52
2023-02-16T19:46:55.000Z,278.59
2023-02-16T19:49:01.000Z,278.65
2023-02-16T19:50:27.000Z,278.65
2023-02-16T19:52:33.000Z,278.65
2023-02-16T19:54:00.000Z,278.65
2023-02-16T19:56:06.000Z,278.71
2023-02-16T19:57:32.000Z,278.71
2023-02-16T19:59:39.000Z,278.9
2023-02-16T20:01:05.000Z,279.02
2023-02-16T20:03:11.000Z,279.21
2023-02-16T20:04:38.000Z,279.34
2023-02-16T20:06:44.000Z,279.21
2023-02-16T20:08:10.000Z,279.21
2023-02-16T20:10:16.000Z,279.34
2023-02-16T20:11:43.000Z,279.46
2023-02-16T20:13:49.000Z,279.46
2023-02-16T20:16:40.000Z,279.34
2023-02-16T20:18:07.000Z,279.46
2023-02-16T20:20:13.000Z,279.52
2023-02-16T20:21:39.000Z,279.46
2023-02-16T20:23:45.000Z,279.59
2023-02-16T20:25:12.000Z,279.52
2023-02-16T20:27:18.000Z,279.59
2023-02-16T20:28:44.000Z,279.52
2023-02-16T20:30:50.000Z,279.59
2023-02-16T20:32:17.000Z,279.71
2023-02-16T20:34:23.000Z,279.71
2023-02-16T20:35:50.000Z,279.71
2023-02-16T20:37:56.000Z,279.77
2023-02-16T20:39:22.000Z,279.77
2023-02-16T20:41:29.000Z,280.02
2023-02-16T20:42:55.000Z,279.96
2023-02-16T20:45:01.000Z,279.9
2023-02-16T20:46:28.000Z,279.9
2023-02-16T20:48:34.000Z,280.02
2023-02-16T20:50:01.000Z,280.09
2023-02-16T20:52:07.000Z,280.02
2023-02-16T20:54:58.000Z,279.9
2023-02-16T20:56:25.000Z,279.9
2023-02-16T20:58:31.000Z,280.02
2023-02-16T20:59:57.000Z,279.96
2023-02-16T21:02:03.000Z,279.9
2023-02-16T21:03:30.000Z,280.02
2023-02-16T21:05:36.000Z,279.84
2023-02-16T21:07:03.000Z,279.96
2023-02-16T21:09:09.000Z,279.84
2023-02-16T21:10:35.000Z,279.9
2023-02-16T21:12:41.000Z,279.9
2023-02-16T21:14:08.000Z,279.77
2023-02-16T21:16:14.000Z,279.77
2023-02-16T21:17:41.000Z,279.65
2023-02-16T21:19:47.000Z,279.77
2023-02-16T21:21:13.000Z,279.71
2023-02-16T21:23:20.000Z,279.65
2023-02-16T21:24:46.000Z,279.77
2023-02-16T21:26:52.000Z,279.71
2023-02-16T21:28:19.000Z,279.84
2023-02-16T21:30:25.000Z,280.02
2023-02-16T21:33:16.000Z,279.84
2023-02-16T21:34:43.000Z,279.71
2023-02-16T21:36:49.000Z,279.77
2023-02-16T21:38:15.000Z,279.96
2023-02-16T21:40:21.000Z,279.96
2023-02-16T21:41:48.000Z,280.02
2023-02-16T21:43:54.000Z,280.02
2023-02-16T21:45:20.000Z,279.96
2023-02-16T21:47:27.000Z,280.02
2023-02-16T21:48:53.000Z,279.96
2023-02-16T21:50:59.000Z,279.96
2023-02-16T21:52:26.000Z,279.9
2023-02-16T21:54:32.000Z,280.09
2023-02-16T21:55:58.000Z,280.09
2023-02-16T21:58:05.000Z,280.15
2023-02-16T21:59:31.000Z,280.09
2023-02-16T22:01:37.000Z,280.09
2023-02-16T22:03:04.000Z,280.09
2023-02-16T22:05:10.000Z,280.02
2023-02-16T22:06:36.000Z,280.09
2023-02-16T22:08:43.000Z,280.15
2023-02-16T22:11:34.000Z,280.34
2023-02-16T22:13:00.000Z,280.4
2023-02-16T22:15:06.000Z,280.34
2023-02-16T22:16:33.000Z,280.52
2023-02-16T22:18:39.000Z,280.59
2023-02-16T22:20:05.000Z,280.65
2023-02-16T22:22:12.000Z,280.65
2023-02-16T22:23:38.000Z,280.77
2023-02-16T22:25:44.000Z,280.84
2023-02-16T22:27:11.000Z,280.77
2023-02-16T22:29:17.000Z,280.77
2023-02-16T22:30:43.000Z,280.77
2023-02-16T22:32:49.000Z,280.77
2023-02-16T22:34:16.000Z,280.77
2023-02-16T22:36:22.000Z,280.71
2023-02-16T22:37:48.000Z,280.71
2023-02-16T22:39:54.000Z,280.65
2023-02-16T22:41:21.000Z,280.65